KSRQ/SRQ METAR and TAF weather

Enter ICAO airport designator
Station Type Date Time Source
KSRQ METAR 2020/12/05 05:37 UTC NOAA

KSRQ 050537Z AUTO 17005KT 10SM SCT028 OVC036 22/18 A3003 RMK AO2 T02170178


Station Type Date Time Source
KSRQ Decoded METAR 2020/12/05 05:37 UTC NOAA

SARASOTA/BRADENTON INTERNATIONAL ., FL, United States (KSRQ) 27-24N 082-33W 18M
Dec 05, 2020 - 12:37 AM EST / 2020.12.05 0537 UTC
Wind: from the S (170 degrees) at 6 MPH (5 KT):0
Visibility: 10 mile(s):0
Sky conditions: overcast
Temperature: 71.1 F (21.7 C)
Dew Point: 64.0 F (17.8 C)
Relative Humidity: 78%
Pressure (altimeter): 30.03 in. Hg (1016 hPa)
ob: KSRQ 050537Z AUTO 17005KT 10SM SCT028 OVC036 22/18 A3003 RMK AO2 T02170178
cycle: 5

Station Type Date Time Source
KSRQ TAF 2020/12/05 06:36 UTC NOAA

TAF KSRQ 050533Z 0506/0606 19007KT P6SM BKN035
FM050900 27007KT P6SM VCSH BKN025
FM051200 34006KT P6SM VCSH BKN003
FM051300 34007KT P6SM VCSH BKN008
FM051500 35008KT P6SM SCT010

Example: see airport list